sensor_id;sensor_type;location;lat;lon;timestamp;temperature;humidity
76996;DHT22;65929;49.062;10.338;2023-06-22T00:00:58;17.00;89.00
76996;DHT22;65929;49.062;10.338;2023-06-22T00:02:03;17.00;89.40
76996;DHT22;65929;49.062;10.338;2023-06-22T00:03:04;17.00;89.60
76996;DHT22;65929;49.062;10.338;2023-06-22T00:04:05;17.00;89.60
76996;DHT22;65929;49.062;10.338;2023-06-22T00:05:08;17.10;89.80
76996;DHT22;65929;49.062;10.338;2023-06-22T00:06:35;17.10;89.70
76996;DHT22;65929;49.062;10.338;2023-06-22T00:07:38;17.20;89.60
76996;DHT22;65929;49.062;10.338;2023-06-22T00:08:40;17.20;89.40
76996;DHT22;65929;49.062;10.338;2023-06-22T00:09:41;17.20;89.30
76996;DHT22;65929;49.062;10.338;2023-06-22T00:10:45;17.20;89.20
76996;DHT22;65929;49.062;10.338;2023-06-22T00:11:49;17.20;89.10
76996;DHT22;65929;49.062;10.338;2023-06-22T00:12:50;17.30;89.20
76996;DHT22;65929;49.062;10.338;2023-06-22T00:13:54;17.30;89.10
76996;DHT22;65929;49.062;10.338;2023-06-22T00:14:55;17.40;88.90
76996;DHT22;65929;49.062;10.338;2023-06-22T00:15:59;17.40;88.60
76996;DHT22;65929;49.062;10.338;2023-06-22T00:17:00;17.40;88.50
76996;DHT22;65929;49.062;10.338;2023-06-22T00:18:08;17.40;88.50
76996;DHT22;65929;49.062;10.338;2023-06-22T00:19:10;17.40;88.60
76996;DHT22;65929;49.062;10.338;2023-06-22T00:20:12;17.40;88.80
76996;DHT22;65929;49.062;10.338;2023-06-22T00:21:15;17.40;88.80
76996;DHT22;65929;49.062;10.338;2023-06-22T00:22:17;17.40;88.80
76996;DHT22;65929;49.062;10.338;2023-06-22T00:23:18;17.40;88.80
76996;DHT22;65929;49.062;10.338;2023-06-22T00:24:19;17.40;88.40
76996;DHT22;65929;49.062;10.338;2023-06-22T00:25:21;17.40;88.20
76996;DHT22;65929;49.062;10.338;2023-06-22T00:26:22;17.30;88.40
76996;DHT22;65929;49.062;10.338;2023-06-22T00:27:23;17.30;88.60
76996;DHT22;65929;49.062;10.338;2023-06-22T00:28:24;17.30;88.70
76996;DHT22;65929;49.062;10.338;2023-06-22T00:29:25;17.30;88.60
76996;DHT22;65929;49.062;10.338;2023-06-22T00:30:26;17.30;88.80
76996;DHT22;65929;49.062;10.338;2023-06-22T00:31:27;17.30;88.60
76996;DHT22;65929;49.062;10.338;2023-06-22T00:32:28;17.30;88.60
76996;DHT22;65929;49.062;10.338;2023-06-22T00:33:29;17.20;88.50
76996;DHT22;65929;49.062;10.338;2023-06-22T00:34:30;17.20;88.30
76996;DHT22;65929;49.062;10.338;2023-06-22T00:35:31;17.20;88.70
76996;DHT22;65929;49.062;10.338;2023-06-22T00:36:32;17.20;88.60
76996;DHT22;65929;49.062;10.338;2023-06-22T00:37:34;17.20;88.60
76996;DHT22;65929;49.062;10.338;2023-06-22T00:38:36;17.20;88.40
76996;DHT22;65929;49.062;10.338;2023-06-22T00:39:40;17.10;88.40
76996;DHT22;65929;49.062;10.338;2023-06-22T00:40:41;17.10;88.90
76996;DHT22;65929;49.062;10.338;2023-06-22T00:41:42;17.10;88.90
76996;DHT22;65929;49.062;10.338;2023-06-22T00:42:43;17.10;89.00
76996;DHT22;65929;49.062;10.338;2023-06-22T00:43:45;17.00;88.90
76996;DHT22;65929;49.062;10.338;2023-06-22T00:44:46;17.00;88.80
76996;DHT22;65929;49.062;10.338;2023-06-22T00:45:47;17.00;89.20
76996;DHT22;65929;49.062;10.338;2023-06-22T00:46:48;17.00;89.20
76996;DHT22;65929;49.062;10.338;2023-06-22T00:47:50;17.00;89.20
76996;DHT22;65929;49.062;10.338;2023-06-22T00:48:52;17.00;89.10
76996;DHT22;65929;49.062;10.338;2023-06-22T00:49:53;17.00;89.10
76996;DHT22;65929;49.062;10.338;2023-06-22T00:50:54;17.00;89.10
76996;DHT22;65929;49.062;10.338;2023-06-22T00:51:57;17.00;89.20
76996;DHT22;65929;49.062;10.338;2023-06-22T00:53:01;17.00;89.30
76996;DHT22;65929;49.062;10.338;2023-06-22T00:54:08;17.00;89.40
76996;DHT22;65929;49.062;10.338;2023-06-22T00:55:09;17.00;89.40
76996;DHT22;65929;49.062;10.338;2023-06-22T00:56:11;17.00;89.40
76996;DHT22;65929;49.062;10.338;2023-06-22T00:57:13;17.00;89.40
76996;DHT22;65929;49.062;10.338;2023-06-22T00:58:16;16.90;89.40
76996;DHT22;65929;49.062;10.338;2023-06-22T00:59:17;16.90;89.60
76996;DHT22;65929;49.062;10.338;2023-06-22T01:00:19;16.90;89.60
76996;DHT22;65929;49.062;10.338;2023-06-22T01:01:20;17.00;89.70
76996;DHT22;65929;49.062;10.338;2023-06-22T01:02:24;17.00;89.70
76996;DHT22;65929;49.062;10.338;2023-06-22T01:03:25;17.00;89.60
76996;DHT22;65929;49.062;10.338;2023-06-22T01:04:35;17.00;89.60
76996;DHT22;65929;49.062;10.338;2023-06-22T01:05:36;17.00;89.40
76996;DHT22;65929;49.062;10.338;2023-06-22T01:06:41;17.00;89.30
76996;DHT22;65929;49.062;10.338;2023-06-22T01:07:56;17.00;89.30
76996;DHT22;65929;49.062;10.338;2023-06-22T01:09:08;17.00;89.30
76996;DHT22;65929;49.062;10.338;2023-06-22T01:10:18;17.00;89.20
76996;DHT22;65929;49.062;10.338;2023-06-22T01:11:28;17.00;89.00
76996;DHT22;65929;49.062;10.338;2023-06-22T01:12:36;16.90;89.10
76996;DHT22;65929;49.062;10.338;2023-06-22T01:13:47;16.90;89.00
76996;DHT22;65929;49.062;10.338;2023-06-22T01:14:50;16.80;88.70
76996;DHT22;65929;49.062;10.338;2023-06-22T01:15:58;16.80;88.80
76996;DHT22;65929;49.062;10.338;2023-06-22T01:17:02;16.70;89.00
76996;DHT22;65929;49.062;10.338;2023-06-22T01:18:04;16.70;89.10
76996;DHT22;65929;49.062;10.338;2023-06-22T01:19:15;16.60;89.00
76996;DHT22;65929;49.062;10.338;2023-06-22T01:20:22;16.60;89.60
76996;DHT22;65929;49.062;10.338;2023-06-22T01:21:25;16.60;90.10
76996;DHT22;65929;49.062;10.338;2023-06-22T01:22:31;16.60;90.70
76996;DHT22;65929;49.062;10.338;2023-06-22T01:23:40;16.60;90.90
76996;DHT22;65929;49.062;10.338;2023-06-22T01:24:57;16.60;91.10
76996;DHT22;65929;49.062;10.338;2023-06-22T01:26:17;16.60;91.50
76996;DHT22;65929;49.062;10.338;2023-06-22T01:27:24;16.60;91.80
76996;DHT22;65929;49.062;10.338;2023-06-22T01:28:43;16.60;91.80
76996;DHT22;65929;49.062;10.338;2023-06-22T01:29:45;16.50;91.80
76996;DHT22;65929;49.062;10.338;2023-06-22T01:30:48;16.50;91.70
76996;DHT22;65929;49.062;10.338;2023-06-22T01:31:51;16.50;91.40
76996;DHT22;65929;49.062;10.338;2023-06-22T01:32:53;16.50;91.30
76996;DHT22;65929;49.062;10.338;2023-06-22T01:33:57;16.50;91.60
76996;DHT22;65929;49.062;10.338;2023-06-22T01:35:00;16.40;91.70
76996;DHT22;65929;49.062;10.338;2023-06-22T01:36:01;16.40;91.70
76996;DHT22;65929;49.062;10.338;2023-06-22T01:37:03;16.40;91.70
76996;DHT22;65929;49.062;10.338;2023-06-22T01:38:05;16.40;91.80
76996;DHT22;65929;49.062;10.338;2023-06-22T01:39:07;16.40;91.90
76996;DHT22;65929;49.062;10.338;2023-06-22T01:40:09;16.40;91.80
76996;DHT22;65929;49.062;10.338;2023-06-22T01:41:11;16.40;91.70
76996;DHT22;65929;49.062;10.338;2023-06-22T01:42:12;16.40;91.70
76996;DHT22;65929;49.062;10.338;2023-06-22T01:43:13;16.30;91.90
76996;DHT22;65929;49.062;10.338;2023-06-22T01:44:16;16.30;92.10
76996;DHT22;65929;49.062;10.338;2023-06-22T01:45:18;16.20;92.30
76996;DHT22;65929;49.062;10.338;2023-06-22T01:46:21;16.30;92.60
76996;DHT22;65929;49.062;10.338;2023-06-22T01:47:22;16.30;92.80
76996;DHT22;65929;49.062;10.338;2023-06-22T01:48:24;16.30;93.10
76996;DHT22;65929;49.062;10.338;2023-06-22T01:49:27;16.40;93.30
76996;DHT22;65929;49.062;10.338;2023-06-22T01:50:28;16.40;93.40
76996;DHT22;65929;49.062;10.338;2023-06-22T01:51:30;16.40;93.40
76996;DHT22;65929;49.062;10.338;2023-06-22T01:52:31;16.40;93.20
76996;DHT22;65929;49.062;10.338;2023-06-22T01:53:34;16.40;92.90
76996;DHT22;65929;49.062;10.338;2023-06-22T01:54:35;16.40;92.70
76996;DHT22;65929;49.062;10.338;2023-06-22T01:55:36;16.40;92.50
76996;DHT22;65929;49.062;10.338;2023-06-22T01:56:37;16.40;92.40
76996;DHT22;65929;49.062;10.338;2023-06-22T01:57:39;16.40;92.30
76996;DHT22;65929;49.062;10.338;2023-06-22T01:58:47;16.40;92.30
76996;DHT22;65929;49.062;10.338;2023-06-22T01:59:53;16.40;92.20
76996;DHT22;65929;49.062;10.338;2023-06-22T02:01:02;16.40;92.20
76996;DHT22;65929;49.062;10.338;2023-06-22T02:02:09;16.30;92.20
76996;DHT22;65929;49.062;10.338;2023-06-22T02:03:13;16.30;92.20
76996;DHT22;65929;49.062;10.338;2023-06-22T02:04:21;16.30;92.20
76996;DHT22;65929;49.062;10.338;2023-06-22T02:05:24;16.20;92.00
76996;DHT22;65929;49.062;10.338;2023-06-22T02:06:31;16.20;92.00
76996;DHT22;65929;49.062;10.338;2023-06-22T02:07:41;16.20;92.10
76996;DHT22;65929;49.062;10.338;2023-06-22T02:08:47;16.20;92.20
76996;DHT22;65929;49.062;10.338;2023-06-22T02:09:51;16.20;92.50
76996;DHT22;65929;49.062;10.338;2023-06-22T02:10:53;16.20;92.60
76996;DHT22;65929;49.062;10.338;2023-06-22T02:11:56;16.20;92.80
76996;DHT22;65929;49.062;10.338;2023-06-22T02:12:58;16.20;92.90
76996;DHT22;65929;49.062;10.338;2023-06-22T02:14:00;16.30;93.20
76996;DHT22;65929;49.062;10.338;2023-06-22T02:15:03;16.40;93.20
76996;DHT22;65929;49.062;10.338;2023-06-22T02:16:04;16.40;93.20
76996;DHT22;65929;49.062;10.338;2023-06-22T02:17:07;16.40;93.10
76996;DHT22;65929;49.062;10.338;2023-06-22T02:18:09;16.40;93.10
76996;DHT22;65929;49.062;10.338;2023-06-22T02:19:10;16.40;93.00
76996;DHT22;65929;49.062;10.338;2023-06-22T02:20:13;16.50;92.90
76996;DHT22;65929;49.062;10.338;2023-06-22T02:21:14;16.50;92.80
76996;DHT22;65929;49.062;10.338;2023-06-22T02:22:15;16.50;92.60
76996;DHT22;65929;49.062;10.338;2023-06-22T02:23:16;16.50;92.60
76996;DHT22;65929;49.062;10.338;2023-06-22T02:24:17;16.60;92.40
76996;DHT22;65929;49.062;10.338;2023-06-22T02:25:18;16.60;92.20
76996;DHT22;65929;49.062;10.338;2023-06-22T02:26:20;16.50;92.00
76996;DHT22;65929;49.062;10.338;2023-06-22T02:27:21;16.50;91.80
76996;DHT22;65929;49.062;10.338;2023-06-22T02:28:22;16.50;91.80
76996;DHT22;65929;49.062;10.338;2023-06-22T02:29:23;16.50;91.90
76996;DHT22;65929;49.062;10.338;2023-06-22T02:30:25;16.50;92.10
76996;DHT22;65929;49.062;10.338;2023-06-22T02:31:26;16.50;92.10
76996;DHT22;65929;49.062;10.338;2023-06-22T02:32:30;16.50;91.90
76996;DHT22;65929;49.062;10.338;2023-06-22T02:33:34;16.50;91.80
76996;DHT22;65929;49.062;10.338;2023-06-22T02:34:35;16.50;91.70
76996;DHT22;65929;49.062;10.338;2023-06-22T02:35:37;16.50;91.60
76996;DHT22;65929;49.062;10.338;2023-06-22T02:36:38;16.40;91.60
76996;DHT22;65929;49.062;10.338;2023-06-22T02:37:39;16.40;91.70
76996;DHT22;65929;49.062;10.338;2023-06-22T02:38:42;16.40;91.90
76996;DHT22;65929;49.062;10.338;2023-06-22T02:39:48;16.40;91.80
76996;DHT22;65929;49.062;10.338;2023-06-22T02:40:49;16.40;91.70
76996;DHT22;65929;49.062;10.338;2023-06-22T02:41:51;16.40;91.80
76996;DHT22;65929;49.062;10.338;2023-06-22T02:42:52;16.40;91.80
76996;DHT22;65929;49.062;10.338;2023-06-22T02:43:53;16.40;91.90
76996;DHT22;65929;49.062;10.338;2023-06-22T02:44:54;16.30;92.00
76996;DHT22;65929;49.062;10.338;2023-06-22T02:45:56;16.30;92.00
76996;DHT22;65929;49.062;10.338;2023-06-22T02:46:58;16.30;92.20
76996;DHT22;65929;49.062;10.338;2023-06-22T02:47:59;16.30;92.40
76996;DHT22;65929;49.062;10.338;2023-06-22T02:49:00;16.30;92.50
76996;DHT22;65929;49.062;10.338;2023-06-22T02:50:01;16.30;92.30
76996;DHT22;65929;49.062;10.338;2023-06-22T02:51:02;16.30;92.10
76996;DHT22;65929;49.062;10.338;2023-06-22T02:52:03;16.30;92.00
76996;DHT22;65929;49.062;10.338;2023-06-22T02:53:04;16.20;91.70
76996;DHT22;65929;49.062;10.338;2023-06-22T02:54:05;16.20;91.60
76996;DHT22;65929;49.062;10.338;2023-06-22T02:55:07;16.20;91.80
76996;DHT22;65929;49.062;10.338;2023-06-22T02:56:08;16.20;91.80
76996;DHT22;65929;49.062;10.338;2023-06-22T02:57:09;16.20;91.70
76996;DHT22;65929;49.062;10.338;2023-06-22T02:58:14;16.20;91.70
76996;DHT22;65929;49.062;10.338;2023-06-22T02:59:15;16.20;91.80
76996;DHT22;65929;49.062;10.338;2023-06-22T03:00:16;16.10;92.00
76996;DHT22;65929;49.062;10.338;2023-06-22T03:01:21;16.10;92.30
76996;DHT22;65929;49.062;10.338;2023-06-22T03:02:24;16.20;92.40
76996;DHT22;65929;49.062;10.338;2023-06-22T03:03:27;16.20;92.50
76996;DHT22;65929;49.062;10.338;2023-06-22T03:04:28;16.10;92.50
76996;DHT22;65929;49.062;10.338;2023-06-22T03:05:29;16.20;92.50
76996;DHT22;65929;49.062;10.338;2023-06-22T03:06:29;16.20;92.50
76996;DHT22;65929;49.062;10.338;2023-06-22T03:07:30;16.20;92.40
76996;DHT22;65929;49.062;10.338;2023-06-22T03:08:31;16.20;92.20
76996;DHT22;65929;49.062;10.338;2023-06-22T03:09:32;16.10;92.10
76996;DHT22;65929;49.062;10.338;2023-06-22T03:10:33;16.10;92.00
76996;DHT22;65929;49.062;10.338;2023-06-22T03:11:34;16.10;91.90
76996;DHT22;65929;49.062;10.338;2023-06-22T03:12:35;16.10;92.00
76996;DHT22;65929;49.062;10.338;2023-06-22T03:13:36;16.10;92.00
76996;DHT22;65929;49.062;10.338;2023-06-22T03:14:37;16.10;92.10
76996;DHT22;65929;49.062;10.338;2023-06-22T03:15:39;16.10;92.30
76996;DHT22;65929;49.062;10.338;2023-06-22T03:16:41;16.10;92.60
76996;DHT22;65929;49.062;10.338;2023-06-22T03:17:42;16.10;92.50
76996;DHT22;65929;49.062;10.338;2023-06-22T03:18:43;16.10;92.40
76996;DHT22;65929;49.062;10.338;2023-06-22T03:19:44;16.10;92.20
76996;DHT22;65929;49.062;10.338;2023-06-22T03:20:45;16.10;92.40
76996;DHT22;65929;49.062;10.338;2023-06-22T03:21:46;16.10;92.50
76996;DHT22;65929;49.062;10.338;2023-06-22T03:22:47;16.10;92.70
76996;DHT22;65929;49.062;10.338;2023-06-22T03:23:49;16.10;92.80
76996;DHT22;65929;49.062;10.338;2023-06-22T03:24:50;16.10;93.00
76996;DHT22;65929;49.062;10.338;2023-06-22T03:25:51;16.20;93.10
76996;DHT22;65929;49.062;10.338;2023-06-22T03:26:52;16.20;93.00
76996;DHT22;65929;49.062;10.338;2023-06-22T03:27:53;16.20;92.90
76996;DHT22;65929;49.062;10.338;2023-06-22T03:28:54;16.20;93.00
76996;DHT22;65929;49.062;10.338;2023-06-22T03:29:56;16.20;93.00
76996;DHT22;65929;49.062;10.338;2023-06-22T03:30:57;16.20;93.10
76996;DHT22;65929;49.062;10.338;2023-06-22T03:32:00;16.20;93.10
76996;DHT22;65929;49.062;10.338;2023-06-22T03:33:01;16.20;93.20
76996;DHT22;65929;49.062;10.338;2023-06-22T03:34:02;16.20;93.20
76996;DHT22;65929;49.062;10.338;2023-06-22T03:35:03;16.30;93.30
76996;DHT22;65929;49.062;10.338;2023-06-22T03:36:06;16.30;93.30
76996;DHT22;65929;49.062;10.338;2023-06-22T03:37:07;16.30;93.20
76996;DHT22;65929;49.062;10.338;2023-06-22T03:38:08;16.30;93.10
76996;DHT22;65929;49.062;10.338;2023-06-22T03:39:09;16.30;93.00
76996;DHT22;65929;49.062;10.338;2023-06-22T03:40:11;16.30;92.90
76996;DHT22;65929;49.062;10.338;2023-06-22T03:41:13;16.30;93.00
76996;DHT22;65929;49.062;10.338;2023-06-22T03:42:13;16.20;93.00
76996;DHT22;65929;49.062;10.338;2023-06-22T03:43:15;16.20;93.00
76996;DHT22;65929;49.062;10.338;2023-06-22T03:44:15;16.20;93.10
76996;DHT22;65929;49.062;10.338;2023-06-22T03:45:16;16.20;93.10
76996;DHT22;65929;49.062;10.338;2023-06-22T03:46:17;16.20;93.10
76996;DHT22;65929;49.062;10.338;2023-06-22T03:47:20;16.20;93.10
76996;DHT22;65929;49.062;10.338;2023-06-22T03:48:21;16.20;93.30
76996;DHT22;65929;49.062;10.338;2023-06-22T03:49:22;16.20;93.20
76996;DHT22;65929;49.062;10.338;2023-06-22T03:50:23;16.30;93.30
76996;DHT22;65929;49.062;10.338;2023-06-22T03:51:23;16.20;93.30
76996;DHT22;65929;49.062;10.338;2023-06-22T03:52:24;16.30;93.30
76996;DHT22;65929;49.062;10.338;2023-06-22T03:53:26;16.20;93.30
76996;DHT22;65929;49.062;10.338;2023-06-22T03:54:27;16.30;93.20
76996;DHT22;65929;49.062;10.338;2023-06-22T03:55:28;16.20;93.10
76996;DHT22;65929;49.062;10.338;2023-06-22T03:56:29;16.20;93.20
76996;DHT22;65929;49.062;10.338;2023-06-22T03:57:30;16.30;93.20
76996;DHT22;65929;49.062;10.338;2023-06-22T03:58:31;16.30;93.20
76996;DHT22;65929;49.062;10.338;2023-06-22T03:59:36;16.40;93.20
76996;DHT22;65929;49.062;10.338;2023-06-22T04:00:37;16.40;93.10
76996;DHT22;65929;49.062;10.338;2023-06-22T04:01:38;16.40;93.00
76996;DHT22;65929;49.062;10.338;2023-06-22T04:02:40;16.40;93.00
76996;DHT22;65929;49.062;10.338;2023-06-22T04:03:41;16.40;92.80
76996;DHT22;65929;49.062;10.338;2023-06-22T04:04:42;16.40;92.70
76996;DHT22;65929;49.062;10.338;2023-06-22T04:05:43;16.40;92.60
76996;DHT22;65929;49.062;10.338;2023-06-22T04:06:44;16.40;92.40
76996;DHT22;65929;49.062;10.338;2023-06-22T04:07:45;16.30;92.40
76996;DHT22;65929;49.062;10.338;2023-06-22T04:08:46;16.30;92.50
76996;DHT22;65929;49.062;10.338;2023-06-22T04:09:51;16.30;92.50
76996;DHT22;65929;49.062;10.338;2023-06-22T04:10:52;16.30;92.50
76996;DHT22;65929;49.062;10.338;2023-06-22T04:11:53;16.30;92.60
76996;DHT22;65929;49.062;10.338;2023-06-22T04:12:54;16.30;92.70
76996;DHT22;65929;49.062;10.338;2023-06-22T04:13:55;16.30;92.70
76996;DHT22;65929;49.062;10.338;2023-06-22T04:14:56;16.40;92.90
76996;DHT22;65929;49.062;10.338;2023-06-22T04:15:57;16.40;93.00
76996;DHT22;65929;49.062;10.338;2023-06-22T04:16:58;16.40;92.90
76996;DHT22;65929;49.062;10.338;2023-06-22T04:18:01;16.40;93.00
76996;DHT22;65929;49.062;10.338;2023-06-22T04:19:02;16.40;93.00
76996;DHT22;65929;49.062;10.338;2023-06-22T04:20:03;16.50;93.00
76996;DHT22;65929;49.062;10.338;2023-06-22T04:21:04;16.50;93.00
76996;DHT22;65929;49.062;10.338;2023-06-22T04:22:05;16.60;92.90
76996;DHT22;65929;49.062;10.338;2023-06-22T04:23:07;16.60;92.80
76996;DHT22;65929;49.062;10.338;2023-06-22T04:24:08;16.60;92.70
76996;DHT22;65929;49.062;10.338;2023-06-22T04:25:09;16.70;92.60
76996;DHT22;65929;49.062;10.338;2023-06-22T04:26:10;16.70;92.50
76996;DHT22;65929;49.062;10.338;2023-06-22T04:27:11;16.70;92.50
76996;DHT22;65929;49.062;10.338;2023-06-22T04:28:12;16.80;92.40
76996;DHT22;65929;49.062;10.338;2023-06-22T04:29:14;16.80;92.20
76996;DHT22;65929;49.062;10.338;2023-06-22T04:30:15;16.80;92.20
76996;DHT22;65929;49.062;10.338;2023-06-22T04:31:17;16.80;92.00
76996;DHT22;65929;49.062;10.338;2023-06-22T04:32:18;16.80;92.00
76996;DHT22;65929;49.062;10.338;2023-06-22T04:33:21;16.90;92.00
76996;DHT22;65929;49.062;10.338;2023-06-22T04:34:22;16.90;91.80
76996;DHT22;65929;49.062;10.338;2023-06-22T04:35:23;16.90;91.70
76996;DHT22;65929;49.062;10.338;2023-06-22T04:36:24;16.90;91.70
76996;DHT22;65929;49.062;10.338;2023-06-22T04:37:25;17.00;91.60
76996;DHT22;65929;49.062;10.338;2023-06-22T04:38:26;17.00;91.50
76996;DHT22;65929;49.062;10.338;2023-06-22T04:39:27;17.00;91.50
76996;DHT22;65929;49.062;10.338;2023-06-22T04:40:28;17.00;91.40
76996;DHT22;65929;49.062;10.338;2023-06-22T04:41:29;17.00;91.20
76996;DHT22;65929;49.062;10.338;2023-06-22T04:42:30;17.10;91.20
76996;DHT22;65929;49.062;10.338;2023-06-22T04:43:31;17.20;91.10
76996;DHT22;65929;49.062;10.338;2023-06-22T04:44:32;17.20;91.00
76996;DHT22;65929;49.062;10.338;2023-06-22T04:45:33;17.20;90.70
76996;DHT22;65929;49.062;10.338;2023-06-22T04:46:34;17.20;90.70
76996;DHT22;65929;49.062;10.338;2023-06-22T04:47:38;17.30;90.60
76996;DHT22;65929;49.062;10.338;2023-06-22T04:48:41;17.30;90.50
76996;DHT22;65929;49.062;10.338;2023-06-22T04:49:42;17.40;90.30
76996;DHT22;65929;49.062;10.338;2023-06-22T04:50:43;17.40;90.10
76996;DHT22;65929;49.062;10.338;2023-06-22T04:51:45;17.50;90.00
76996;DHT22;65929;49.062;10.338;2023-06-22T04:52:46;17.50;89.80
76996;DHT22;65929;49.062;10.338;2023-06-22T04:53:47;17.50;89.70
76996;DHT22;65929;49.062;10.338;2023-06-22T04:54:48;17.50;89.60
76996;DHT22;65929;49.062;10.338;2023-06-22T04:55:49;17.50;89.70
76996;DHT22;65929;49.062;10.338;2023-06-22T04:56:50;17.50;89.60
76996;DHT22;65929;49.062;10.338;2023-06-22T04:57:57;17.50;89.60
76996;DHT22;65929;49.062;10.338;2023-06-22T04:59:05;17.60;89.50
76996;DHT22;65929;49.062;10.338;2023-06-22T05:00:07;17.60;89.50
76996;DHT22;65929;49.062;10.338;2023-06-22T05:01:12;17.60;89.40
76996;DHT22;65929;49.062;10.338;2023-06-22T05:02:13;17.70;89.20
76996;DHT22;65929;49.062;10.338;2023-06-22T05:03:14;17.80;88.80
76996;DHT22;65929;49.062;10.338;2023-06-22T05:04:21;17.80;88.50
76996;DHT22;65929;49.062;10.338;2023-06-22T05:05:23;18.00;88.20
76996;DHT22;65929;49.062;10.338;2023-06-22T05:06:24;18.10;87.30
76996;DHT22;65929;49.062;10.338;2023-06-22T05:07:25;18.20;87.10
76996;DHT22;65929;49.062;10.338;2023-06-22T05:08:27;18.30;86.80
76996;DHT22;65929;49.062;10.338;2023-06-22T05:09:29;18.30;86.60
76996;DHT22;65929;49.062;10.338;2023-06-22T05:10:30;18.40;86.40
76996;DHT22;65929;49.062;10.338;2023-06-22T05:11:31;18.40;86.40
76996;DHT22;65929;49.062;10.338;2023-06-22T05:12:32;18.40;86.50
76996;DHT22;65929;49.062;10.338;2023-06-22T05:13:33;18.40;86.10
76996;DHT22;65929;49.062;10.338;2023-06-22T05:14:34;18.50;85.90
76996;DHT22;65929;49.062;10.338;2023-06-22T05:15:35;18.50;86.20
76996;DHT22;65929;49.062;10.338;2023-06-22T05:16:41;18.50;86.00
76996;DHT22;65929;49.062;10.338;2023-06-22T05:17:43;18.60;85.80
76996;DHT22;65929;49.062;10.338;2023-06-22T05:18:45;18.80;84.10
76996;DHT22;65929;49.062;10.338;2023-06-22T05:19:48;18.90;83.60
76996;DHT22;65929;49.062;10.338;2023-06-22T05:20:49;19.00;83.70
76996;DHT22;65929;49.062;10.338;2023-06-22T05:21:50;19.00;83.00
76996;DHT22;65929;49.062;10.338;2023-06-22T05:22:51;19.10;82.90
76996;DHT22;65929;49.062;10.338;2023-06-22T05:23:52;19.20;82.60
76996;DHT22;65929;49.062;10.338;2023-06-22T05:24:54;19.20;82.60
76996;DHT22;65929;49.062;10.338;2023-06-22T05:25:55;19.20;82.60
76996;DHT22;65929;49.062;10.338;2023-06-22T05:26:58;19.30;82.00
76996;DHT22;65929;49.062;10.338;2023-06-22T05:27:59;19.40;81.60
76996;DHT22;65929;49.062;10.338;2023-06-22T05:29:01;19.50;81.50
76996;DHT22;65929;49.062;10.338;2023-06-22T05:30:03;19.50;80.90
76996;DHT22;65929;49.062;10.338;2023-06-22T05:31:04;19.50;80.50
76996;DHT22;65929;49.062;10.338;2023-06-22T05:32:05;19.60;80.50
76996;DHT22;65929;49.062;10.338;2023-06-22T05:33:07;19.70;80.60
76996;DHT22;65929;49.062;10.338;2023-06-22T05:34:08;19.60;80.80
76996;DHT22;65929;49.062;10.338;2023-06-22T05:35:10;19.70;80.00
76996;DHT22;65929;49.062;10.338;2023-06-22T05:36:11;19.70;79.70
76996;DHT22;65929;49.062;10.338;2023-06-22T05:37:13;19.80;79.00
76996;DHT22;65929;49.062;10.338;2023-06-22T05:38:14;19.90;78.90
76996;DHT22;65929;49.062;10.338;2023-06-22T05:39:15;19.90;78.90
76996;DHT22;65929;49.062;10.338;2023-06-22T05:40:16;19.90;78.20
76996;DHT22;65929;49.062;10.338;2023-06-22T05:41:17;20.00;78.00
76996;DHT22;65929;49.062;10.338;2023-06-22T05:42:18;20.10;78.20
76996;DHT22;65929;49.062;10.338;2023-06-22T05:43:19;20.00;78.30
76996;DHT22;65929;49.062;10.338;2023-06-22T05:44:20;20.00;78.00
76996;DHT22;65929;49.062;10.338;2023-06-22T05:45:21;20.10;77.60
76996;DHT22;65929;49.062;10.338;2023-06-22T05:46:23;20.10;77.00
76996;DHT22;65929;49.062;10.338;2023-06-22T05:47:24;20.30;77.20
76996;DHT22;65929;49.062;10.338;2023-06-22T05:48:25;20.30;77.50
76996;DHT22;65929;49.062;10.338;2023-06-22T05:49:26;20.30;77.70
76996;DHT22;65929;49.062;10.338;2023-06-22T05:50:34;20.30;77.70
76996;DHT22;65929;49.062;10.338;2023-06-22T05:51:35;20.30;77.90
76996;DHT22;65929;49.062;10.338;2023-06-22T05:52:36;20.30;77.50
76996;DHT22;65929;49.062;10.338;2023-06-22T05:53:37;20.30;78.00
76996;DHT22;65929;49.062;10.338;2023-06-22T05:54:38;20.20;78.20
76996;DHT22;65929;49.062;10.338;2023-06-22T05:55:39;20.20;78.30
76996;DHT22;65929;49.062;10.338;2023-06-22T05:56:41;20.20;78.40
76996;DHT22;65929;49.062;10.338;2023-06-22T05:57:42;20.20;78.40
76996;DHT22;65929;49.062;10.338;2023-06-22T05:58:43;20.10;77.90
76996;DHT22;65929;49.062;10.338;2023-06-22T05:59:44;20.30;77.80
76996;DHT22;65929;49.062;10.338;2023-06-22T06:00:45;20.30;77.90
76996;DHT22;65929;49.062;10.338;2023-06-22T06:01:47;20.30;78.10
76996;DHT22;65929;49.062;10.338;2023-06-22T06:02:50;20.30;77.50
76996;DHT22;65929;49.062;10.338;2023-06-22T06:03:51;20.30;77.20
76996;DHT22;65929;49.062;10.338;2023-06-22T06:04:53;20.50;76.90
76996;DHT22;65929;49.062;10.338;2023-06-22T06:05:56;20.50;77.40
76996;DHT22;65929;49.062;10.338;2023-06-22T06:06:57;20.60;77.60
76996;DHT22;65929;49.062;10.338;2023-06-22T06:07:58;20.60;76.20
76996;DHT22;65929;49.062;10.338;2023-06-22T06:09:00;20.70;76.40
76996;DHT22;65929;49.062;10.338;2023-06-22T06:10:01;20.70;76.50
76996;DHT22;65929;49.062;10.338;2023-06-22T06:11:01;20.80;76.20
76996;DHT22;65929;49.062;10.338;2023-06-22T06:12:03;20.80;76.00
76996;DHT22;65929;49.062;10.338;2023-06-22T06:13:04;20.80;75.90
76996;DHT22;65929;49.062;10.338;2023-06-22T06:14:05;20.90;75.70
76996;DHT22;65929;49.062;10.338;2023-06-22T06:15:07;20.80;76.30
76996;DHT22;65929;49.062;10.338;2023-06-22T06:16:08;20.90;75.40
76996;DHT22;65929;49.062;10.338;2023-06-22T06:17:09;20.90;75.50
76996;DHT22;65929;49.062;10.338;2023-06-22T06:18:10;20.90;75.80
76996;DHT22;65929;49.062;10.338;2023-06-22T06:19:11;21.00;75.10
76996;DHT22;65929;49.062;10.338;2023-06-22T06:20:12;21.00;75.50
76996;DHT22;65929;49.062;10.338;2023-06-22T06:21:15;21.10;74.70
76996;DHT22;65929;49.062;10.338;2023-06-22T06:22:16;21.20;73.80
76996;DHT22;65929;49.062;10.338;2023-06-22T06:23:17;21.40;73.80
76996;DHT22;65929;49.062;10.338;2023-06-22T06:24:18;21.40;74.20
76996;DHT22;65929;49.062;10.338;2023-06-22T06:25:19;21.40;74.40
76996;DHT22;65929;49.062;10.338;2023-06-22T06:26:22;21.30;73.70
76996;DHT22;65929;49.062;10.338;2023-06-22T06:27:28;21.40;73.80